sensor_id;sensor_type;location;lat;lon;timestamp;P1;durP1;ratioP1;P2;durP2;ratioP2
52318;SDS011;38258;51.148;14.068;2024-01-16T00:02:17;5.57;;;2.70;;
52318;SDS011;38258;51.148;14.068;2024-01-16T00:04:44;4.07;;;2.10;;
52318;SDS011;38258;51.148;14.068;2024-01-16T00:07:11;3.38;;;2.05;;
52318;SDS011;38258;51.148;14.068;2024-01-16T00:09:37;3.75;;;1.85;;
52318;SDS011;38258;51.148;14.068;2024-01-16T00:12:04;5.38;;;2.22;;
52318;SDS011;38258;51.148;14.068;2024-01-16T00:14:34;5.53;;;2.10;;
52318;SDS011;38258;51.148;14.068;2024-01-16T00:17:01;8.73;;;2.03;;
52318;SDS011;38258;51.148;14.068;2024-01-16T00:19:29;4.63;;;1.80;;
52318;SDS011;38258;51.148;14.068;2024-01-16T00:21:56;4.15;;;1.83;;
52318;SDS011;38258;51.148;14.068;2024-01-16T00:24:22;4.45;;;1.60;;
52318;SDS011;38258;51.148;14.068;2024-01-16T00:26:49;3.35;;;1.83;;
52318;SDS011;38258;51.148;14.068;2024-01-16T00:29:16;3.15;;;1.58;;
52318;SDS011;38258;51.148;14.068;2024-01-16T00:31:43;2.10;;;1.58;;
52318;SDS011;38258;51.148;14.068;2024-01-16T00:34:09;2.45;;;1.55;;
52318;SDS011;38258;51.148;14.068;2024-01-16T00:36:37;5.78;;;1.60;;
52318;SDS011;38258;51.148;14.068;2024-01-16T00:39:04;4.97;;;1.85;;
52318;SDS011;38258;51.148;14.068;2024-01-16T00:41:32;3.35;;;1.55;;
52318;SDS011;38258;51.148;14.068;2024-01-16T00:43:58;3.75;;;1.52;;
52318;SDS011;38258;51.148;14.068;2024-01-16T00:46:25;2.72;;;1.35;;
52318;SDS011;38258;51.148;14.068;2024-01-16T00:48:52;3.15;;;1.60;;
52318;SDS011;38258;51.148;14.068;2024-01-16T00:51:19;3.08;;;1.60;;
52318;SDS011;38258;51.148;14.068;2024-01-16T00:53:46;3.67;;;1.63;;
52318;SDS011;38258;51.148;14.068;2024-01-16T00:56:13;4.53;;;1.77;;
52318;SDS011;38258;51.148;14.068;2024-01-16T00:58:40;2.75;;;1.50;;
52318;SDS011;38258;51.148;14.068;2024-01-16T01:01:06;5.40;;;1.63;;
52318;SDS011;38258;51.148;14.068;2024-01-16T01:03:33;7.68;;;2.10;;
52318;SDS011;38258;51.148;14.068;2024-01-16T01:06:00;4.45;;;1.95;;
52318;SDS011;38258;51.148;14.068;2024-01-16T01:08:27;4.28;;;2.10;;
52318;SDS011;38258;51.148;14.068;2024-01-16T01:10:55;3.60;;;1.92;;
52318;SDS011;38258;51.148;14.068;2024-01-16T01:13:22;3.95;;;1.92;;
52318;SDS011;38258;51.148;14.068;2024-01-16T01:15:50;4.80;;;2.08;;
52318;SDS011;38258;51.148;14.068;2024-01-16T01:18:16;3.33;;;1.80;;
52318;SDS011;38258;51.148;14.068;2024-01-16T01:20:43;5.50;;;2.10;;
52318;SDS011;38258;51.148;14.068;2024-01-16T01:23:10;4.53;;;2.17;;
52318;SDS011;38258;51.148;14.068;2024-01-16T01:25:36;5.85;;;2.40;;
52318;SDS011;38258;51.148;14.068;2024-01-16T01:28:05;3.08;;;1.92;;
52318;SDS011;38258;51.148;14.068;2024-01-16T01:30:32;5.55;;;1.98;;
52318;SDS011;38258;51.148;14.068;2024-01-16T01:32:58;4.13;;;2.42;;
52318;SDS011;38258;51.148;14.068;2024-01-16T01:35:25;7.78;;;2.70;;
52318;SDS011;38258;51.148;14.068;2024-01-16T01:37:52;5.80;;;2.03;;
52318;SDS011;38258;51.148;14.068;2024-01-16T01:40:19;6.10;;;2.20;;
52318;SDS011;38258;51.148;14.068;2024-01-16T01:42:45;4.57;;;2.05;;
52318;SDS011;38258;51.148;14.068;2024-01-16T01:45:13;6.25;;;2.60;;
52318;SDS011;38258;51.148;14.068;2024-01-16T01:47:40;6.13;;;2.35;;
52318;SDS011;38258;51.148;14.068;2024-01-16T01:50:08;4.47;;;2.00;;
52318;SDS011;38258;51.148;14.068;2024-01-16T01:52:35;6.68;;;2.38;;
52318;SDS011;38258;51.148;14.068;2024-01-16T01:55:04;4.85;;;2.00;;
52318;SDS011;38258;51.148;14.068;2024-01-16T01:57:34;4.85;;;2.38;;
52318;SDS011;38258;51.148;14.068;2024-01-16T02:00:01;3.75;;;1.95;;
52318;SDS011;38258;51.148;14.068;2024-01-16T02:02:39;4.97;;;3.08;;
52318;SDS011;38258;51.148;14.068;2024-01-16T02:05:07;3.72;;;2.17;;
52318;SDS011;38258;51.148;14.068;2024-01-16T02:07:34;5.10;;;2.90;;
52318;SDS011;38258;51.148;14.068;2024-01-16T02:10:01;6.05;;;2.33;;
52318;SDS011;38258;51.148;14.068;2024-01-16T02:12:28;8.00;;;2.47;;
52318;SDS011;38258;51.148;14.068;2024-01-16T02:14:55;5.00;;;2.60;;
52318;SDS011;38258;51.148;14.068;2024-01-16T02:17:22;6.38;;;2.83;;
52318;SDS011;38258;51.148;14.068;2024-01-16T02:19:50;5.40;;;2.22;;
52318;SDS011;38258;51.148;14.068;2024-01-16T02:22:19;4.88;;;2.28;;
52318;SDS011;38258;51.148;14.068;2024-01-16T02:24:49;4.75;;;2.30;;
52318;SDS011;38258;51.148;14.068;2024-01-16T02:27:15;6.28;;;2.33;;
52318;SDS011;38258;51.148;14.068;2024-01-16T02:29:42;4.93;;;2.47;;
52318;SDS011;38258;51.148;14.068;2024-01-16T02:32:10;4.60;;;2.20;;
52318;SDS011;38258;51.148;14.068;2024-01-16T02:34:38;9.73;;;3.03;;
52318;SDS011;38258;51.148;14.068;2024-01-16T02:37:04;5.13;;;2.28;;
52318;SDS011;38258;51.148;14.068;2024-01-16T02:39:31;5.07;;;2.75;;
52318;SDS011;38258;51.148;14.068;2024-01-16T02:41:59;5.50;;;2.70;;
52318;SDS011;38258;51.148;14.068;2024-01-16T02:44:26;5.97;;;2.42;;
52318;SDS011;38258;51.148;14.068;2024-01-16T02:46:52;5.32;;;2.05;;
52318;SDS011;38258;51.148;14.068;2024-01-16T02:49:19;6.72;;;2.72;;
52318;SDS011;38258;51.148;14.068;2024-01-16T02:51:46;5.03;;;2.33;;
52318;SDS011;38258;51.148;14.068;2024-01-16T02:54:13;6.10;;;2.75;;
52318;SDS011;38258;51.148;14.068;2024-01-16T02:56:39;6.13;;;2.85;;
52318;SDS011;38258;51.148;14.068;2024-01-16T02:59:07;4.80;;;2.40;;
52318;SDS011;38258;51.148;14.068;2024-01-16T03:01:35;5.45;;;2.65;;
52318;SDS011;38258;51.148;14.068;2024-01-16T03:04:01;5.70;;;2.58;;
52318;SDS011;38258;51.148;14.068;2024-01-16T03:06:29;6.50;;;2.60;;
52318;SDS011;38258;51.148;14.068;2024-01-16T03:08:55;5.45;;;2.50;;
52318;SDS011;38258;51.148;14.068;2024-01-16T03:11:22;5.63;;;2.63;;
52318;SDS011;38258;51.148;14.068;2024-01-16T03:13:48;6.43;;;2.85;;
52318;SDS011;38258;51.148;14.068;2024-01-16T03:16:19;4.50;;;2.20;;
52318;SDS011;38258;51.148;14.068;2024-01-16T03:18:45;4.60;;;2.28;;
52318;SDS011;38258;51.148;14.068;2024-01-16T03:21:13;3.15;;;1.90;;
52318;SDS011;38258;51.148;14.068;2024-01-16T03:23:39;3.75;;;2.20;;
52318;SDS011;38258;51.148;14.068;2024-01-16T03:26:06;4.72;;;2.20;;
52318;SDS011;38258;51.148;14.068;2024-01-16T03:28:32;4.53;;;2.25;;
52318;SDS011;38258;51.148;14.068;2024-01-16T03:30:59;4.20;;;2.17;;
52318;SDS011;38258;51.148;14.068;2024-01-16T03:33:27;5.97;;;2.50;;
52318;SDS011;38258;51.148;14.068;2024-01-16T03:35:53;3.60;;;2.17;;
52318;SDS011;38258;51.148;14.068;2024-01-16T03:38:20;3.35;;;1.90;;
52318;SDS011;38258;51.148;14.068;2024-01-16T03:40:47;3.92;;;1.92;;
52318;SDS011;38258;51.148;14.068;2024-01-16T03:43:13;3.97;;;2.20;;
52318;SDS011;38258;51.148;14.068;2024-01-16T03:45:40;4.07;;;1.98;;
52318;SDS011;38258;51.148;14.068;2024-01-16T03:48:05;3.40;;;1.85;;
52318;SDS011;38258;51.148;14.068;2024-01-16T03:50:34;2.67;;;1.63;;
52318;SDS011;38258;51.148;14.068;2024-01-16T03:53:01;4.38;;;1.70;;
52318;SDS011;38258;51.148;14.068;2024-01-16T03:55:29;4.43;;;2.20;;
52318;SDS011;38258;51.148;14.068;2024-01-16T03:57:55;4.35;;;1.70;;
52318;SDS011;38258;51.148;14.068;2024-01-16T04:00:22;4.72;;;1.75;;
52318;SDS011;38258;51.148;14.068;2024-01-16T04:02:49;4.53;;;1.73;;
52318;SDS011;38258;51.148;14.068;2024-01-16T04:05:15;3.33;;;1.80;;
52318;SDS011;38258;51.148;14.068;2024-01-16T04:07:43;5.00;;;1.83;;
52318;SDS011;38258;51.148;14.068;2024-01-16T04:10:10;3.47;;;1.60;;
52318;SDS011;38258;51.148;14.068;2024-01-16T04:12:36;3.40;;;1.88;;
52318;SDS011;38258;51.148;14.068;2024-01-16T04:15:03;3.47;;;1.98;;
52318;SDS011;38258;51.148;14.068;2024-01-16T04:17:30;4.07;;;1.92;;
52318;SDS011;38258;51.148;14.068;2024-01-16T04:19:57;2.85;;;1.90;;
52318;SDS011;38258;51.148;14.068;2024-01-16T04:22:24;3.85;;;2.10;;
52318;SDS011;38258;51.148;14.068;2024-01-16T04:24:52;4.95;;;2.08;;
52318;SDS011;38258;51.148;14.068;2024-01-16T04:27:19;2.40;;;1.83;;
52318;SDS011;38258;51.148;14.068;2024-01-16T04:29:45;4.40;;;2.08;;
52318;SDS011;38258;51.148;14.068;2024-01-16T04:32:12;4.18;;;1.92;;
52318;SDS011;38258;51.148;14.068;2024-01-16T04:34:38;3.33;;;2.00;;
52318;SDS011;38258;51.148;14.068;2024-01-16T04:37:05;2.83;;;1.60;;
52318;SDS011;38258;51.148;14.068;2024-01-16T04:39:32;4.93;;;2.03;;
52318;SDS011;38258;51.148;14.068;2024-01-16T04:42:00;3.80;;;1.98;;
52318;SDS011;38258;51.148;14.068;2024-01-16T04:44:26;8.07;;;2.22;;
52318;SDS011;38258;51.148;14.068;2024-01-16T04:46:53;4.47;;;2.55;;
52318;SDS011;38258;51.148;14.068;2024-01-16T04:49:20;3.13;;;2.10;;
52318;SDS011;38258;51.148;14.068;2024-01-16T04:51:46;3.65;;;2.25;;
52318;SDS011;38258;51.148;14.068;2024-01-16T04:54:13;7.00;;;3.75;;
52318;SDS011;38258;51.148;14.068;2024-01-16T04:56:40;6.18;;;3.28;;
52318;SDS011;38258;51.148;14.068;2024-01-16T04:59:08;4.43;;;2.50;;
52318;SDS011;38258;51.148;14.068;2024-01-16T05:01:34;3.75;;;2.17;;
52318;SDS011;38258;51.148;14.068;2024-01-16T05:04:01;7.45;;;2.83;;
52318;SDS011;38258;51.148;14.068;2024-01-16T05:06:28;7.00;;;3.13;;
52318;SDS011;38258;51.148;14.068;2024-01-16T05:08:55;5.72;;;3.00;;
52318;SDS011;38258;51.148;14.068;2024-01-16T05:11:22;2.83;;;2.03;;
52318;SDS011;38258;51.148;14.068;2024-01-16T05:13:48;4.68;;;2.90;;
52318;SDS011;38258;51.148;14.068;2024-01-16T05:16:16;6.80;;;2.78;;
52318;SDS011;38258;51.148;14.068;2024-01-16T05:18:43;4.93;;;2.40;;
52318;SDS011;38258;51.148;14.068;2024-01-16T05:21:09;7.28;;;2.95;;
52318;SDS011;38258;51.148;14.068;2024-01-16T05:23:36;11.43;;;3.30;;
52318;SDS011;38258;51.148;14.068;2024-01-16T05:26:03;5.45;;;3.00;;
52318;SDS011;38258;51.148;14.068;2024-01-16T05:28:30;3.15;;;1.83;;
52318;SDS011;38258;51.148;14.068;2024-01-16T05:30:57;7.90;;;2.95;;
52318;SDS011;38258;51.148;14.068;2024-01-16T05:33:25;3.28;;;2.25;;
52318;SDS011;38258;51.148;14.068;2024-01-16T05:35:51;5.40;;;2.90;;
52318;SDS011;38258;51.148;14.068;2024-01-16T05:38:18;4.28;;;2.38;;
52318;SDS011;38258;51.148;14.068;2024-01-16T05:40:45;6.13;;;3.65;;
52318;SDS011;38258;51.148;14.068;2024-01-16T05:43:11;4.60;;;2.28;;
52318;SDS011;38258;51.148;14.068;2024-01-16T05:45:39;4.25;;;2.35;;
52318;SDS011;38258;51.148;14.068;2024-01-16T05:48:06;5.47;;;3.13;;
52318;SDS011;38258;51.148;14.068;2024-01-16T05:50:35;4.32;;;2.53;;
52318;SDS011;38258;51.148;14.068;2024-01-16T05:53:03;5.13;;;3.10;;
52318;SDS011;38258;51.148;14.068;2024-01-16T05:55:29;4.95;;;2.40;;
52318;SDS011;38258;51.148;14.068;2024-01-16T05:57:57;5.72;;;2.55;;
52318;SDS011;38258;51.148;14.068;2024-01-16T06:00:24;4.28;;;2.13;;
52318;SDS011;38258;51.148;14.068;2024-01-16T06:02:51;3.03;;;2.13;;
52318;SDS011;38258;51.148;14.068;2024-01-16T06:05:18;4.00;;;2.25;;
52318;SDS011;38258;51.148;14.068;2024-01-16T06:07:48;4.88;;;1.95;;
52318;SDS011;38258;51.148;14.068;2024-01-16T06:10:14;9.23;;;2.63;;
52318;SDS011;38258;51.148;14.068;2024-01-16T06:12:41;2.90;;;2.17;;
52318;SDS011;38258;51.148;14.068;2024-01-16T06:15:08;6.60;;;3.00;;
52318;SDS011;38258;51.148;14.068;2024-01-16T06:17:36;7.78;;;2.40;;
52318;SDS011;38258;51.148;14.068;2024-01-16T06:20:03;4.32;;;2.30;;
52318;SDS011;38258;51.148;14.068;2024-01-16T06:22:31;5.10;;;3.10;;
52318;SDS011;38258;51.148;14.068;2024-01-16T06:24:59;5.95;;;2.40;;
52318;SDS011;38258;51.148;14.068;2024-01-16T06:27:27;6.10;;;2.28;;
52318;SDS011;38258;51.148;14.068;2024-01-16T06:29:53;4.10;;;2.38;;
52318;SDS011;38258;51.148;14.068;2024-01-16T06:32:20;4.63;;;2.40;;
52318;SDS011;38258;51.148;14.068;2024-01-16T06:34:47;3.38;;;2.42;;
52318;SDS011;38258;51.148;14.068;2024-01-16T06:37:13;6.03;;;3.28;;
52318;SDS011;38258;51.148;14.068;2024-01-16T06:39:40;5.13;;;2.78;;
52318;SDS011;38258;51.148;14.068;2024-01-16T06:42:08;9.73;;;2.60;;
52318;SDS011;38258;51.148;14.068;2024-01-16T06:44:35;6.45;;;3.22;;
52318;SDS011;38258;51.148;14.068;2024-01-16T06:47:01;6.35;;;2.78;;
52318;SDS011;38258;51.148;14.068;2024-01-16T06:49:28;6.43;;;2.70;;
52318;SDS011;38258;51.148;14.068;2024-01-16T06:51:55;6.63;;;2.78;;
52318;SDS011;38258;51.148;14.068;2024-01-16T06:54:22;6.25;;;3.30;;
52318;SDS011;38258;51.148;14.068;2024-01-16T06:56:49;3.35;;;2.17;;
52318;SDS011;38258;51.148;14.068;2024-01-16T06:59:17;4.72;;;2.78;;
52318;SDS011;38258;51.148;14.068;2024-01-16T07:01:46;6.25;;;2.75;;
52318;SDS011;38258;51.148;14.068;2024-01-16T07:04:13;6.13;;;2.67;;
52318;SDS011;38258;51.148;14.068;2024-01-16T07:06:40;4.80;;;2.67;;
52318;SDS011;38258;51.148;14.068;2024-01-16T07:09:07;7.10;;;3.20;;
52318;SDS011;38258;51.148;14.068;2024-01-16T07:11:36;6.05;;;3.05;;
52318;SDS011;38258;51.148;14.068;2024-01-16T07:14:03;5.78;;;2.97;;
52318;SDS011;38258;51.148;14.068;2024-01-16T07:16:31;6.95;;;3.53;;
52318;SDS011;38258;51.148;14.068;2024-01-16T07:18:58;5.65;;;3.10;;
52318;SDS011;38258;51.148;14.068;2024-01-16T07:21:24;4.78;;;2.65;;
52318;SDS011;38258;51.148;14.068;2024-01-16T07:23:51;8.35;;;3.78;;
52318;SDS011;38258;51.148;14.068;2024-01-16T07:26:18;6.70;;;3.10;;
52318;SDS011;38258;51.148;14.068;2024-01-16T07:28:44;5.60;;;2.60;;
52318;SDS011;38258;51.148;14.068;2024-01-16T07:31:13;10.35;;;4.00;;
52318;SDS011;38258;51.148;14.068;2024-01-16T07:33:41;8.30;;;4.13;;
52318;SDS011;38258;51.148;14.068;2024-01-16T07:36:07;8.07;;;3.60;;
52318;SDS011;38258;51.148;14.068;2024-01-16T07:38:35;8.88;;;3.45;;
52318;SDS011;38258;51.148;14.068;2024-01-16T07:41:02;10.57;;;3.53;;
52318;SDS011;38258;51.148;14.068;2024-01-16T07:43:29;5.38;;;3.40;;
52318;SDS011;38258;51.148;14.068;2024-01-16T07:45:56;7.28;;;4.20;;
52318;SDS011;38258;51.148;14.068;2024-01-16T07:48:23;11.50;;;3.95;;
52318;SDS011;38258;51.148;14.068;2024-01-16T07:50:51;6.57;;;3.83;;
52318;SDS011;38258;51.148;14.068;2024-01-16T07:53:18;11.30;;;3.45;;
52318;SDS011;38258;51.148;14.068;2024-01-16T07:55:44;4.80;;;2.90;;
52318;SDS011;38258;51.148;14.068;2024-01-16T07:58:11;11.20;;;3.17;;
52318;SDS011;38258;51.148;14.068;2024-01-16T08:00:38;6.88;;;3.05;;
52318;SDS011;38258;51.148;14.068;2024-01-16T08:03:07;8.65;;;3.33;;
52318;SDS011;38258;51.148;14.068;2024-01-16T08:05:36;6.65;;;3.20;;
52318;SDS011;38258;51.148;14.068;2024-01-16T08:08:04;4.53;;;2.90;;
52318;SDS011;38258;51.148;14.068;2024-01-16T08:10:34;9.02;;;3.10;;
52318;SDS011;38258;51.148;14.068;2024-01-16T08:13:01;6.78;;;3.22;;
52318;SDS011;38258;51.148;14.068;2024-01-16T08:15:28;4.57;;;2.75;;
52318;SDS011;38258;51.148;14.068;2024-01-16T08:17:55;8.32;;;2.97;;
52318;SDS011;38258;51.148;14.068;2024-01-16T08:20:21;7.03;;;3.25;;
52318;SDS011;38258;51.148;14.068;2024-01-16T08:22:48;4.32;;;2.40;;
52318;SDS011;38258;51.148;14.068;2024-01-16T08:25:17;7.53;;;3.60;;
52318;SDS011;38258;51.148;14.068;2024-01-16T08:27:43;5.25;;;2.58;;
52318;SDS011;38258;51.148;14.068;2024-01-16T08:30:10;6.28;;;2.80;;
52318;SDS011;38258;51.148;14.068;2024-01-16T08:32:37;8.25;;;3.17;;
52318;SDS011;38258;51.148;14.068;2024-01-16T08:35:04;3.78;;;2.10;;
52318;SDS011;38258;51.148;14.068;2024-01-16T08:37:32;5.85;;;3.33;;
52318;SDS011;38258;51.148;14.068;2024-01-16T08:39:59;9.45;;;3.05;;
52318;SDS011;38258;51.148;14.068;2024-01-16T08:42:27;5.70;;;2.45;;
52318;SDS011;38258;51.148;14.068;2024-01-16T08:44:53;7.20;;;2.88;;
52318;SDS011;38258;51.148;14.068;2024-01-16T08:47:20;3.17;;;2.30;;
52318;SDS011;38258;51.148;14.068;2024-01-16T08:49:47;6.35;;;2.70;;
52318;SDS011;38258;51.148;14.068;2024-01-16T08:52:13;5.82;;;3.10;;
52318;SDS011;38258;51.148;14.068;2024-01-16T08:54:41;6.25;;;2.47;;
52318;SDS011;38258;51.148;14.068;2024-01-16T08:57:07;5.65;;;2.55;;
52318;SDS011;38258;51.148;14.068;2024-01-16T08:59:37;8.43;;;3.65;;
52318;SDS011;38258;51.148;14.068;2024-01-16T09:02:04;5.22;;;3.03;;
52318;SDS011;38258;51.148;14.068;2024-01-16T09:04:31;6.65;;;3.35;;
52318;SDS011;38258;51.148;14.068;2024-01-16T09:06:58;7.20;;;3.13;;
52318;SDS011;38258;51.148;14.068;2024-01-16T09:09:24;10.52;;;3.55;;
52318;SDS011;38258;51.148;14.068;2024-01-16T09:11:51;6.45;;;3.17;;
52318;SDS011;38258;51.148;14.068;2024-01-16T09:14:18;10.35;;;3.58;;
52318;SDS011;38258;51.148;14.068;2024-01-16T09:16:46;11.52;;;4.13;;
52318;SDS011;38258;51.148;14.068;2024-01-16T09:19:13;8.32;;;3.90;;
52318;SDS011;38258;51.148;14.068;2024-01-16T09:21:40;7.97;;;3.10;;
52318;SDS011;38258;51.148;14.068;2024-01-16T09:24:06;6.72;;;2.90;;
52318;SDS011;38258;51.148;14.068;2024-01-16T09:26:33;7.20;;;2.72;;
52318;SDS011;38258;51.148;14.068;2024-01-16T09:29:01;5.10;;;2.83;;
52318;SDS011;38258;51.148;14.068;2024-01-16T09:31:28;9.60;;;3.45;;
52318;SDS011;38258;51.148;14.068;2024-01-16T09:33:56;7.40;;;3.28;;
52318;SDS011;38258;51.148;14.068;2024-01-16T09:36:22;6.45;;;3.15;;
52318;SDS011;38258;51.148;14.068;2024-01-16T09:38:49;7.93;;;3.50;;
52318;SDS011;38258;51.148;14.068;2024-01-16T09:41:16;9.13;;;2.90;;
52318;SDS011;38258;51.148;14.068;2024-01-16T09:43:42;8.48;;;3.67;;
52318;SDS011;38258;51.148;14.068;2024-01-16T09:46:11;6.07;;;3.35;;
52318;SDS011;38258;51.148;14.068;2024-01-16T09:48:38;6.15;;;2.80;;
52318;SDS011;38258;51.148;14.068;2024-01-16T09:51:08;6.68;;;2.83;;
52318;SDS011;38258;51.148;14.068;2024-01-16T09:53:34;8.98;;;3.38;;
52318;SDS011;38258;51.148;14.068;2024-01-16T09:56:01;7.35;;;2.60;;
52318;SDS011;38258;51.148;14.068;2024-01-16T09:58:29;8.68;;;2.70;;
52318;SDS011;38258;51.148;14.068;2024-01-16T10:01:01;5.50;;;2.75;;
52318;SDS011;38258;51.148;14.068;2024-01-16T10:03:27;7.55;;;2.95;;
52318;SDS011;38258;51.148;14.068;2024-01-16T10:05:57;7.18;;;3.33;;
52318;SDS011;38258;51.148;14.068;2024-01-16T10:08:26;7.05;;;3.22;;
52318;SDS011;38258;51.148;14.068;2024-01-16T10:10:54;4.88;;;2.55;;
52318;SDS011;38258;51.148;14.068;2024-01-16T10:13:20;8.25;;;3.30;;
52318;SDS011;38258;51.148;14.068;2024-01-16T10:15:49;5.57;;;3.00;;
52318;SDS011;38258;51.148;14.068;2024-01-16T10:18:24;7.53;;;3.20;;
52318;SDS011;38258;51.148;14.068;2024-01-16T10:20:51;5.65;;;3.00;;
52318;SDS011;38258;51.148;14.068;2024-01-16T10:23:22;6.43;;;2.88;;
52318;SDS011;38258;51.148;14.068;2024-01-16T10:26:07;7.20;;;2.90;;
52318;SDS011;38258;51.148;14.068;2024-01-16T10:28:35;5.43;;;2.40;;
52318;SDS011;38258;51.148;14.068;2024-01-16T10:31:02;6.60;;;2.67;;
52318;SDS011;38258;51.148;14.068;2024-01-16T10:33:29;5.05;;;2.65;;
52318;SDS011;38258;51.148;14.068;2024-01-16T10:36:07;6.40;;;2.90;;
52318;SDS011;38258;51.148;14.068;2024-01-16T10:38:37;5.20;;;2.63;;
52318;SDS011;38258;51.148;14.068;2024-01-16T10:41:08;5.75;;;2.80;;
52318;SDS011;38258;51.148;14.068;2024-01-16T10:43:35;5.10;;;2.50;;
52318;SDS011;38258;51.148;14.068;2024-01-16T10:46:12;5.70;;;2.40;;
52318;SDS011;38258;51.148;14.068;2024-01-16T10:48:40;4.22;;;2.53;;
52318;SDS011;38258;51.148;14.068;2024-01-16T10:51:08;4.90;;;2.92;;
52318;SDS011;38258;51.148;14.068;2024-01-16T10:53:37;5.85;;;2.38;;
52318;SDS011;38258;51.148;14.068;2024-01-16T10:56:11;6.00;;;3.75;;
52318;SDS011;38258;51.148;14.068;2024-01-16T10:58:38;7.28;;;4.43;;
52318;SDS011;38258;51.148;14.068;2024-01-16T11:01:10;9.52;;;5.40;;
52318;SDS011;38258;51.148;14.068;2024-01-16T11:03:40;7.20;;;4.47;;
52318;SDS011;38258;51.148;14.068;2024-01-16T11:06:09;8.40;;;3.63;;
52318;SDS011;38258;51.148;14.068;2024-01-16T11:08:37;7.25;;;3.45;;
52318;SDS011;38258;51.148;14.068;2024-01-16T11:11:05;6.80;;;2.40;;
52318;SDS011;38258;51.148;14.068;2024-01-16T11:13:35;6.70;;;2.95;;
52318;SDS011;38258;51.148;14.068;2024-01-16T11:16:02;3.92;;;2.50;;
52318;SDS011;38258;51.148;14.068;2024-01-16T11:18:30;5.75;;;2.88;;
52318;SDS011;38258;51.148;14.068;2024-01-16T11:20:58;6.30;;;3.42;;
52318;SDS011;38258;51.148;14.068;2024-01-16T11:23:26;5.72;;;2.38;;
52318;SDS011;38258;51.148;14.068;2024-01-16T11:25:53;6.93;;;3.05;;
52318;SDS011;38258;51.148;14.068;2024-01-16T11:28:19;6.90;;;2.85;;
52318;SDS011;38258;51.148;14.068;2024-01-16T11:30:47;5.75;;;3.03;;
52318;SDS011;38258;51.148;14.068;2024-01-16T11:39:09;9.38;;;4.13;;
52318;SDS011;38258;51.148;14.068;2024-01-16T11:41:51;5.50;;;3.17;;
52318;SDS011;38258;51.148;14.068;2024-01-16T11:47:18;9.23;;;2.92;;
52318;SDS011;38258;51.148;14.068;2024-01-16T11:49:45;7.40;;;3.53;;
52318;SDS011;38258;51.148;14.068;2024-01-16T11:52:13;4.75;;;2.60;;
52318;SDS011;38258;51.148;14.068;2024-01-16T11:54:40;5.03;;;2.92;;
52318;SDS011;38258;51.148;14.068;2024-01-16T12:00:18;5.50;;;2.53;;
52318;SDS011;38258;51.148;14.068;2024-01-16T12:02:53;5.30;;;2.80;;
52318;SDS011;38258;51.148;14.068;2024-01-16T12:05:22;7.13;;;3.03;;
52318;SDS011;38258;51.148;14.068;2024-01-16T12:07:49;8.05;;;3.20;;
52318;SDS011;38258;51.148;14.068;2024-01-16T12:10:18;7.40;;;3.65;;
52318;SDS011;38258;51.148;14.068;2024-01-16T12:12:45;8.30;;;3.33;;
52318;SDS011;38258;51.148;14.068;2024-01-16T12:15:13;6.93;;;2.92;;
52318;SDS011;38258;51.148;14.068;2024-01-16T12:17:51;6.78;;;3.00;;
52318;SDS011;38258;51.148;14.068;2024-01-16T12:20:23;7.00;;;3.08;;
52318;SDS011;38258;51.148;14.068;2024-01-16T12:22:55;5.60;;;2.97;;
52318;SDS011;38258;51.148;14.068;2024-01-16T12:25:23;7.20;;;3.08;;
52318;SDS011;38258;51.148;14.068;2024-01-16T12:27:54;7.50;;;2.88;;
52318;SDS011;38258;51.148;14.068;2024-01-16T12:30:25;6.75;;;2.65;;
52318;SDS011;38258;51.148;14.068;2024-01-16T12:33:03;9.52;;;3.35;;
52318;SDS011;38258;51.148;14.068;2024-01-16T12:35:34;4.95;;;2.72;;
52318;SDS011;38258;51.148;14.068;2024-01-16T12:38:02;8.68;;;4.50;;
52318;SDS011;38258;51.148;14.068;2024-01-16T12:40:30;8.43;;;3.80;;
52318;SDS011;38258;51.148;14.068;2024-01-16T12:42:57;8.05;;;3.10;;
52318;SDS011;38258;51.148;14.068;2024-01-16T12:45:24;8.10;;;3.58;;
52318;SDS011;38258;51.148;14.068;2024-01-16T12:47:51;6.93;;;3.20;;
52318;SDS011;38258;51.148;14.068;2024-01-16T12:50:20;8.48;;;3.30;;
52318;SDS011;38258;51.148;14.068;2024-01-16T12:52:48;5.57;;;2.78;;
52318;SDS011;38258;51.148;14.068;2024-01-16T12:55:16;7.72;;;3.28;;
52318;SDS011;38258;51.148;14.068;2024-01-16T12:57:44;5.60;;;2.70;;
52318;SDS011;38258;51.148;14.068;2024-01-16T13:00:23;4.47;;;2.42;;
52318;SDS011;38258;51.148;14.068;2024-01-16T13:02:50;4.13;;;2.60;;
52318;SDS011;38258;51.148;14.068;2024-01-16T13:05:17;6.65;;;2.83;;
52318;SDS011;38258;51.148;14.068;2024-01-16T13:07:46;5.82;;;2.72;;
52318;SDS011;38258;51.148;14.068;2024-01-16T13:10:28;6.40;;;2.70;;
52318;SDS011;38258;51.148;14.068;2024-01-16T13:15:37;4.93;;;2.30;;
52318;SDS011;38258;51.148;14.068;2024-01-16T13:18:04;4.00;;;2.45;;
52318;SDS011;38258;51.148;14.068;2024-01-16T13:20:31;5.55;;;3.20;;
52318;SDS011;38258;51.148;14.068;2024-01-16T13:22:59;4.75;;;2.58;;
52318;SDS011;38258;51.148;14.068;2024-01-16T13:25:26;11.73;;;3.60;;
52318;SDS011;38258;51.148;14.068;2024-01-16T13:27:53;4.97;;;2.35;;
52318;SDS011;38258;51.148;14.068;2024-01-16T13:30:19;5.57;;;2.92;;
52318;SDS011;38258;51.148;14.068;2024-01-16T13:32:46;5.60;;;2.80;;
52318;SDS011;38258;51.148;14.068;2024-01-16T13:35:13;9.38;;;3.00;;
52318;SDS011;38258;51.148;14.068;2024-01-16T13:37:39;3.38;;;2.35;;
52318;SDS011;38258;51.148;14.068;2024-01-16T13:40:08;5.65;;;2.47;;
52318;SDS011;38258;51.148;14.068;2024-01-16T13:42:35;8.45;;;2.65;;
52318;SDS011;38258;51.148;14.068;2024-01-16T13:45:02;8.68;;;3.30;;
52318;SDS011;38258;51.148;14.068;2024-01-16T13:47:30;7.60;;;2.60;;
52318;SDS011;38258;51.148;14.068;2024-01-16T13:49:56;6.45;;;3.08;;
52318;SDS011;38258;51.148;14.068;2024-01-16T13:52:23;6.13;;;2.40;;
52318;SDS011;38258;51.148;14.068;2024-01-16T13:54:50;7.05;;;2.65;;
52318;SDS011;38258;51.148;14.068;2024-01-16T13:57:18;5.97;;;2.92;;
52318;SDS011;38258;51.148;14.068;2024-01-16T13:59:44;6.68;;;3.05;;
52318;SDS011;38258;51.148;14.068;2024-01-16T14:02:11;8.77;;;3.47;;
52318;SDS011;38258;51.148;14.068;2024-01-16T14:04:38;7.00;;;3.05;;
52318;SDS011;38258;51.148;14.068;2024-01-16T14:07:04;8.18;;;2.65;;
52318;SDS011;38258;51.148;14.068;2024-01-16T14:09:33;6.78;;;3.53;;
52318;SDS011;38258;51.148;14.068;2024-01-16T14:12:00;16.02;;;5.40;;
52318;SDS011;38258;51.148;14.068;2024-01-16T14:14:28;6.13;;;2.88;;
52318;SDS011;38258;51.148;14.068;2024-01-16T14:16:55;5.85;;;2.70;;
52318;SDS011;38258;51.148;14.068;2024-01-16T14:19:22;7.47;;;3.50;;
52318;SDS011;38258;51.148;14.068;2024-01-16T14:21:51;15.75;;;6.35;;
52318;SDS011;38258;51.148;14.068;2024-01-16T14:24:18;22.42;;;9.90;;
52318;SDS011;38258;51.148;14.068;2024-01-16T14:26:46;10.68;;;5.22;;
52318;SDS011;38258;51.148;14.068;2024-01-16T14:29:13;19.38;;;7.53;;
52318;SDS011;38258;51.148;14.068;2024-01-16T14:31:42;10.38;;;4.57;;
52318;SDS011;38258;51.148;14.068;2024-01-16T14:34:10;9.45;;;4.57;;
52318;SDS011;38258;51.148;14.068;2024-01-16T14:36:39;11.60;;;4.47;;
52318;SDS011;38258;51.148;14.068;2024-01-16T14:39:06;10.48;;;4.40;;
52318;SDS011;38258;51.148;14.068;2024-01-16T14:41:35;21.63;;;9.18;;
52318;SDS011;38258;51.148;14.068;2024-01-16T14:44:01;11.25;;;6.15;;
52318;SDS011;38258;51.148;14.068;2024-01-16T14:46:29;8.45;;;3.65;;
52318;SDS011;38258;51.148;14.068;2024-01-16T14:48:57;8.55;;;3.92;;
52318;SDS011;38258;51.148;14.068;2024-01-16T14:51:24;8.35;;;3.42;;